KMGM/MGM METAR and TAF weather

Enter ICAO airport designator
Station Type Date Time Source
KMGM METAR 2022/01/19 19:53 UTC NOAA

KMGM 191953Z 16009KT 10SM CLR 21/09 A3011 RMK AO2 SLP197 T02060094


Station Type Date Time Source
KMGM Decoded METAR 2022/01/19 19:53 UTC NOAA

MONTGOMERY DANNELLY FIELD, AL, United States (KMGM) 32-18N 86-24W 63M
Jan 19, 2022 - 02:53 PM EST / 2022.01.19 1953 UTC
Wind: from the SSE (160 degrees) at 10 MPH (9 KT):0
Visibility: 10 mile(s):0
Sky conditions: clear
Temperature: 69.1 F (20.6 C)
Dew Point: 48.9 F (9.4 C)
Relative Humidity: 48%
Pressure (altimeter): 30.11 in. Hg (1019 hPa)
ob: KMGM 191953Z 16009KT 10SM CLR 21/09 A3011 RMK AO2 SLP197 T02060094
cycle: 20

Station Type Date Time Source
KMGM TAF 2022/01/19 18:45 UTC NOAA

TAF KMGM 191739Z 1918/2018 17009KT P6SM BKN100
FM200400 18010G18KT P6SM OVC060
FM200900 18006KT 3SM RA BR OVC025
FM201200 33009KT 4SM SHRA BR OVC014
FM201500 35012G19KT 3SM SHRA BR OVC009

Example: see airport list